27 maja 2022

Czas Kod Pogoda Temp. Widoczność Sufit Wiatr METAR/SPECI
8:55 pm
V
54 °F 6¼ mi+ - 300° 300° 28 kt METAR EHHW 271855Z AUTO 30028KT 9999 FEW023/// 12/07 Q1017
8:25 pm
V
54 °F 6¼ mi+ - 300° 300° 28 kt METAR EHHW 271825Z AUTO 30028KT 9999 FEW017/// SCT021/// 12/07 Q1017
7:55 pm
M
54 °F 6¼ mi+ 2.400 ft 300° 300° 23 kt METAR EHHW 271755Z AUTO 30023KT 9999 FEW017/// SCT021/// BKN024/// 12/08 Q1017
7:25 pm
V
54 °F 6¼ mi+ - 290° 290° 29 kt METAR EHHW 271725Z AUTO 29029KT 9999 FEW021/// SCT028/// 12/08 Q1017
6:55 pm
V
54 °F 6¼ mi+ - 300° 300° 27 kt METAR EHHW 271655Z AUTO 30027KT 9999 FEW021/// 12/08 Q1017
6:25 pm
V
54 °F 6¼ mi+ - 290° 290° 28 kt METAR EHHW 271625Z AUTO 29028KT 9999 FEW019/// SCT025/// 12/08 Q1017
5:55 pm
M
54 °F 6¼ mi+ 2.300 ft 290° 290° 27 kt METAR EHHW 271555Z AUTO 29027KT 9999 FEW019/// BKN023/// BKN026/// 12/08 Q1017
5:25 pm
V
54 °F 6¼ mi+ 3.200 ft 280° 280° 26 kt METAR EHHW 271525Z AUTO 28026KT 9999 FEW020/// SCT024/// BKN032/// 12/07 Q1018
4:55 pm
V
54 °F 6¼ mi+ 4.600 ft 280° 280° 28 kt METAR EHHW 271455Z AUTO 28028KT 9999 FEW021/// SCT033/// BKN046/// 12/07 Q1018
4:25 pm
V
54 °F 6¼ mi+ 4.800 ft 280° 280° 28 kt METAR EHHW 271425Z AUTO 28028KT 9999 FEW017/// SCT029/// BKN048/// 12/07 Q1018
3:55 pm
V
54 °F 6¼ mi+ - 280° 280° 26 kt METAR EHHW 271355Z AUTO 28026KT 9999 FEW017/// SCT029/// 12/07 Q1018
3:25 pm
V
54 °F 6¼ mi+ - 290° 290° 27 kt METAR EHHW 271325Z AUTO 29027KT 9999 FEW019/// 12/07 Q1018
2:55 pm
V
54 °F 6¼ mi+ - 290° 290° 28 kt METAR EHHW 271255Z AUTO 29028KT 9999 FEW020/// SCT031/// 12/06 Q1017
2:25 pm
V
54 °F 6¼ mi+ 3.300 ft 280° 280° 28 kt METAR EHHW 271225Z AUTO 28028KT 9999 SCT020/// SCT025/// BKN033/// 12/07 Q1017
1:55 pm
V
54 °F 6¼ mi+ 3.900 ft 290° 290° 27 kt METAR EHHW 271155Z AUTO 29027KT 9999 FEW020/// SCT024/// BKN039/// 12/07 Q1017
1:25 pm
V
54 °F 6¼ mi+ 4.300 ft 280° 280° 27 kt METAR EHHW 271125Z AUTO 28027KT 9999 FEW021/// SCT038/// BKN043/// 12/06 Q1017
12:55 pm
V
54 °F 6¼ mi+ 4.200 ft 290° 290° 27 kt METAR EHHW 271055Z AUTO 29027KT 9999 FEW018/// SCT032/// BKN042/// 12/06 Q1017
12:25 pm
M
52 °F 6¼ mi+ 2.400 ft 290° 290° 27 kt METAR EHHW 271025Z AUTO 29027KT 9999 FEW018/// SCT021/// BKN024/// 11/07 Q1017 REDZ
11:55 am
V
52 °F 6¼ mi+ 3.100 ft 290° 290° 29 kt METAR EHHW 270955Z AUTO 29029KT 9999 -RA FEW018/// SCT023/// BKN031/// 11/06 Q1016
11:25 am
V
54 °F 6¼ mi+ 3.700 ft 290° 290° 28 kt METAR EHHW 270925Z AUTO 29028KT 9999 FEW022/// SCT028/// BKN037/// 12/06 Q1017
10:55 am
V
54 °F 6¼ mi+ 3.700 ft 290° 290° 26 kt METAR EHHW 270855Z AUTO 29026KT 9999 FEW023/// SCT030/// BKN037/// 12/06 Q1016
10:25 am
V
54 °F 6¼ mi+ 3.700 ft 290° 290° 27 kt METAR EHHW 270825Z AUTO 29027KT 9999 FEW021/// SCT032/// BKN037/// 12/06 Q1016
9:55 am
V
54 °F 6¼ mi+ 3.700 ft 290° 290° 28 kt METAR EHHW 270755Z AUTO 29028KT 9999 FEW021/// SCT033/// BKN037/// 12/06 Q1016
9:25 am
V
54 °F 6¼ mi+ - 290° 290° 28 kt METAR EHHW 270725Z AUTO 29028KT 9999 FEW024/// SCT038/// 12/06 Q1016
8:55 am
V
54 °F 6¼ mi+ - 290° 290° 27 kt METAR EHHW 270655Z AUTO 29027KT 9999 FEW025/// SCT031/// 12/05 Q1016
8:25 am
V
54 °F 6¼ mi+ - 290° 290° 28 kt METAR EHHW 270625Z AUTO 29028KT 9999 SCT025/// SCT033/// 12/06 Q1015
7:55 am
V
54 °F 6¼ mi+ - 280° 280° 25 kt METAR EHHW 270555Z AUTO 28025KT 9999 FEW027/// 12/06 Q1016
7:25 am
V
54 °F 6¼ mi+ - 290° 290° 28 kt METAR EHHW 270525Z AUTO 29028KT 9999 FEW025/// 12/04 Q1015
6:55 am
V
54 °F 6¼ mi+ - 290° 290° 23 kt METAR EHHW 270455Z AUTO 29023KT 9999 FEW025/// 12/06 Q1015
6:25 am
V
54 °F 6¼ mi+ - 290° 290° 22 kt METAR EHHW 270425Z AUTO 29022KT 9999 NCD 12/06 Q1015
5:55 am
V
54 °F 6¼ mi+ - 290° 290° 22 kt METAR EHHW 270355Z AUTO 29022KT 9999 NCD 12/05 Q1015
5:25 am
V
54 °F 6¼ mi+ - 280° 280° 20 kt METAR EHHW 270325Z AUTO 28020KT 9999 FEW030/// 12/06 Q1015
4:55 am
V
54 °F 6¼ mi+ - 280° 280° 21 kt METAR EHHW 270255Z AUTO 28021KT 9999 FEW031/// 12/06 Q1015
4:25 am
V
55 °F 6¼ mi+ - 280° 280° 18 kt METAR EHHW 270225Z AUTO 28018KT 9999 NCD 13/06 Q1015
3:55 am
V
55 °F 6¼ mi+ - 280° 280° 19 kt METAR EHHW 270155Z AUTO 28019KT 9999 NSC 13/06 Q1015
3:25 am
V
55 °F 6¼ mi+ - 290° 290° 17 kt METAR EHHW 270125Z AUTO 29017KT 9999 NSC 13/07 Q1015
2:55 am
V
55 °F 6¼ mi+ - 300° 300° 16 kt METAR EHHW 270055Z AUTO 30016KT 9999 NSC 13/06 Q1015
2:25 am
V
55 °F 6¼ mi+ - 300° 300° 24 kt METAR EHHW 270025Z AUTO 30024KT 9999 FEW049/// 13/06 Q1015
1:55 am
V
55 °F 6¼ mi+ - 280° 280° 20 kt METAR EHHW 262355Z AUTO 28020KT 9999 FEW049/// 13/09 Q1015
1:25 am
V
55 °F 6¼ mi+ - 290° 290° 20 kt METAR EHHW 262325Z AUTO 29020KT 9999 NSC 13/09 Q1015
12:55 am
V
55 °F 6¼ mi+ - 290° 290° 20 kt METAR EHHW 262255Z AUTO 29020KT 9999 NSC 13/09 Q1015
12:25 am
V
57 °F 6¼ mi+ - 290° 290° 22 kt METAR EHHW 262225Z AUTO 29022KT 9999 NSC 14/10 Q1015

26 maja 2022

Czas Kod Pogoda Temp. Widoczność Sufit Wiatr METAR/SPECI
11:55 pm
V
57 °F 6¼ mi+ - 280° 280° 20 kt METAR EHHW 262155Z AUTO 28020KT 9999 NSC 14/10 Q1015
11:25 pm
V
57 °F 6¼ mi+ - 280° 280° 24 kt METAR EHHW 262125Z AUTO 28024KT 9999 NSC 14/10 Q1015
10:55 pm
V
57 °F 6¼ mi+ - 270° 270° 26 kt METAR EHHW 262055Z AUTO 27026KT 9999 NSC 14/11 Q1015
10:25 pm
V
57 °F 6¼ mi+ - 260° 260° 26 kt METAR EHHW 262025Z AUTO 26026KT 9999 NSC 14/11 Q1015
9:55 pm
V
57 °F 6¼ mi+ - 250° 250° 28 kt METAR EHHW 261955Z AUTO 25028KT 9999 FEW013/// SCT046/// 14/11 Q1015
9:25 pm
M
57 °F 6¼ mi+ 2.700 ft 240° 240° 27 kt METAR EHHW 261925Z AUTO 24027KT 9999 FEW010/// SCT023/// BKN027/// 14/12 Q1014
8:55 pm
M
57 °F 6¼ mi+ 2.200 ft 240° 240° 27 kt METAR EHHW 261855Z AUTO 24027KT 9999 FEW001/// BKN022/// BKN025/// 14/12 Q1014 REDZ
8:25 pm
M
55 °F 6¼ mi+ 2.100 ft 230° 230° 25 kt METAR EHHW 261825Z AUTO 23025KT 9999 FEW001/// SCT006/// OVC021/// 13/12 Q1014
7:55 pm
L
55 °F 6¼ mi+ 400 ft 220° 220° 25 kt METAR EHHW 261755Z AUTO 22025KT 9999 FEW002/// BKN004/// BKN005/// 13/12 Q1015
7:25 pm
L
54 °F 3¾ mi 300 ft 220° 220° 24 kt METAR EHHW 261725Z AUTO 22024KT 6000 DZ FEW002/// BKN003/// OVC006/// 12/12 Q1015
6:55 pm
M
54 °F 3¾ mi 1.900 ft 220° 220° 19 kt METAR EHHW 261655Z AUTO 22019KT 6000 DZ FEW002/// SCT004/// BKN019/// 12/11 Q1016
6:25 pm
V
55 °F 6¼ mi+ 3.300 ft 230° 230° 16 - 28 kt METAR EHHW 261625Z AUTO 23016G28KT 200V260 9999 FEW008/// SCT028/// BKN033/// 13/10 Q1016
5:55 pm
V
55 °F 6¼ mi+ 4.000 ft 230° 230° 12 kt METAR EHHW 261555Z AUTO 23012KT 190V280 9999 FEW012/// SCT035/// BKN040/// 13/10 Q1016
5:25 pm
V
55 °F 6¼ mi+ 3.600 ft 240° 240° 12 kt METAR EHHW 261525Z AUTO 24012KT 190V290 9999 FEW012/// BKN036/// BKN042/// 13/10 Q1016
4:55 pm
V
55 °F 6¼ mi+ 3.600 ft 250° 250° 17 kt METAR EHHW 261455Z AUTO 25017KT 210V280 9999 FEW010/// BKN036/// OVC046/// 13/10 Q1017
4:25 pm
V
55 °F 6¼ mi+ 4.300 ft 250° 250° 16 kt METAR EHHW 261425Z AUTO 25016KT 200V280 9999 FEW010/// SCT037/// BKN043/// 13/10 Q1017
3:55 pm
V
55 °F 6¼ mi+ - 250° 250° 18 kt METAR EHHW 261355Z AUTO 25018KT 9999 FEW013/// 13/10 Q1017
3:25 pm
V
55 °F 6¼ mi+ - 250° 250° 18 kt METAR EHHW 261325Z AUTO 25018KT 9999 NSC 13/10 Q1017
2:55 pm
V
55 °F 6¼ mi+ - 250° 250° 18 kt METAR EHHW 261255Z AUTO 25018KT 9999 FEW010/// 13/10 Q1017
2:25 pm
V
55 °F 6¼ mi+ - 250° 250° 18 kt METAR EHHW 261225Z AUTO 25018KT 9999 FEW008/// 13/10 Q1017
1:55 pm
V
55 °F 6¼ mi+ - 250° 250° 18 kt METAR EHHW 261155Z AUTO 25018KT 9999 FEW008/// 13/10 Q1017
1:25 pm
V
55 °F 6¼ mi+ - 250° 250° 17 kt METAR EHHW 261125Z AUTO 25017KT 9999 FEW012/// 13/10 Q1017
12:55 pm
V
55 °F 6¼ mi+ - 250° 250° 16 kt METAR EHHW 261055Z AUTO 25016KT 9999 NSC 13/09 Q1017
12:25 pm
V
55 °F 6¼ mi+ - 250° 250° 17 kt METAR EHHW 261025Z AUTO 25017KT 9999 NSC 13/09 Q1017
11:55 am
V
55 °F 6¼ mi+ - 250° 250° 17 kt METAR EHHW 260955Z AUTO 25017KT 9999 NSC 13/09 Q1017
11:25 am
V
55 °F 6¼ mi+ - 260° 260° 15 kt METAR EHHW 260925Z AUTO 26015KT 9999 NSC 13/09 Q1017
10:55 am
V
55 °F 6¼ mi+ - 250° 250° 17 kt METAR EHHW 260855Z AUTO 25017KT 9999 NSC 13/09 Q1017
10:25 am
V
55 °F 6¼ mi+ - 260° 260° 16 kt METAR EHHW 260825Z AUTO 26016KT 9999 NSC 13/08 Q1016
9:55 am
V
57 °F 6¼ mi+ - 270° 270° 15 kt METAR EHHW 260755Z AUTO 27015KT 9999 NSC 14/08 Q1016
9:25 am
V
55 °F 6¼ mi+ - 260° 260° 16 kt METAR EHHW 260725Z AUTO 26016KT 9999 NSC 13/09 Q1016
8:55 am
V
55 °F 6¼ mi+ - 260° 260° 18 kt METAR EHHW 260655Z AUTO 26018KT 9999 NSC 13/09 Q1015
8:25 am
V
55 °F 6¼ mi+ - 260° 260° 16 kt METAR EHHW 260625Z AUTO 26016KT 230V290 9999 NSC 13/09 Q1015
7:55 am
V
55 °F 6¼ mi+ - 260° 260° 16 kt METAR EHHW 260555Z AUTO 26016KT 9999 NSC 13/09 Q1015
7:25 am
V
55 °F 6¼ mi+ - 270° 270° 15 kt METAR EHHW 260525Z AUTO 27015KT 9999 NSC 13/08 Q1014
6:55 am
V
55 °F 6¼ mi+ - 270° 270° 19 kt METAR EHHW 260455Z AUTO 27019KT 9999 NSC 13/08 Q1014
6:25 am
V
55 °F 6¼ mi+ - 270° 270° 17 kt METAR EHHW 260425Z AUTO 27017KT 9999 NSC 13/08 Q1014
5:55 am
V
55 °F 6¼ mi+ - 280° 280° 15 kt METAR EHHW 260355Z AUTO 28015KT 9999 NSC 13/07 Q1013
5:25 am
V
55 °F 6¼ mi+ - 270° 270° 15 kt METAR EHHW 260325Z AUTO 27015KT 9999 NSC 13/09 Q1013
4:55 am
V
55 °F 6¼ mi+ - 280° 280° 16 kt METAR EHHW 260255Z AUTO 28016KT 9999 NSC 13/08 Q1013
4:25 am
V
55 °F 6¼ mi+ - 270° 270° 16 kt METAR EHHW 260225Z AUTO 27016KT 9999 NSC 13/09 Q1013
3:55 am
V
55 °F 6¼ mi+ - 270° 270° 20 kt METAR EHHW 260155Z AUTO 27020KT 9999 NSC 13/09 Q1013
3:25 am
V
55 °F 6¼ mi+ - 270° 270° 19 kt METAR EHHW 260125Z AUTO 27019KT 9999 NSC 13/09 Q1012
2:55 am
V
55 °F 6¼ mi+ 4.900 ft 270° 270° 21 kt METAR EHHW 260055Z AUTO 27021KT 9999 SCT044/// BKN049/// 13/09 Q1012
2:25 am
V
57 °F 6¼ mi+ 4.100 ft 260° 260° 21 kt METAR EHHW 260025Z AUTO 26021KT 9999 BKN041/// BKN045/// 14/10 Q1012
1:55 am
V
57 °F 6¼ mi+ 4.100 ft 250° 250° 22 kt METAR EHHW 252355Z AUTO 25022KT 9999 BKN041/// 14/10 Q1012
1:25 am
V
55 °F 6¼ mi+ 4.200 ft 250° 250° 23 kt METAR EHHW 252325Z AUTO 25023KT 9999 SCT037/// BKN042/// 13/11 Q1012
12:55 am
V
57 °F 6¼ mi+ 4.100 ft 240° 240° 23 kt METAR EHHW 252255Z AUTO 24023KT 9999 FEW037/// BKN041/// 14/11 Q1012
12:25 am
V
55 °F 6¼ mi+ - 240° 240° 24 kt METAR EHHW 252225Z AUTO 24024KT 9999 ///////// 13/11 Q1012

25 maja 2022

Czas Kod Pogoda Temp. Widoczność Sufit Wiatr METAR/SPECI
11:55 pm
V
55 °F 6¼ mi+ - 240° 240° 25 kt METAR EHHW 252155Z AUTO 24025KT 9999 NSC 13/11 Q1012
11:25 pm
V
55 °F 6¼ mi+ - 240° 240° 27 kt METAR EHHW 252125Z AUTO 24027KT 9999 FEW008/// 13/11 Q1012
10:55 pm
V
55 °F 6¼ mi+ - 240° 240° 23 kt METAR EHHW 252055Z AUTO 24023KT 9999 FEW001/// 13/11 Q1011 REDZ
10:25 pm
M
55 °F 6¼ mi+ 1.000 ft 230° 230° 23 kt METAR EHHW 252025Z AUTO 23023KT 9999 -RADZ FEW001/// SCT009/// BKN010/// 13/11 Q1011
9:55 pm
V
55 °F 6¼ mi+ 3.000 ft 230° 230° 25 kt METAR EHHW 251955Z AUTO 23025KT 9999 FEW008/// SCT009/// BKN030/// 13/11 Q1011
9:25 pm
V
55 °F 6¼ mi+ - 220° 220° 25 kt METAR EHHW 251925Z AUTO 22025KT 9999 FEW009/// 13/11 Q1011 REDZ
8:55 pm
V
55 °F 6¼ mi+ - 220° 220° 27 kt METAR EHHW 251855Z AUTO 22027KT 9999 FEW010/// SCT041/// 13/11 Q1011
8:25 pm
M
55 °F 6¼ mi+ 2.800 ft 220° 220° 27 kt METAR EHHW 251825Z AUTO 22027KT 9999 FEW009/// SCT011/// BKN028/// 13/11 Q1011
7:55 pm
M
55 °F 6¼ mi+ 1.300 ft 220° 220° 27 kt METAR EHHW 251755Z AUTO 22027KT 9999 FEW001/// SCT010/// BKN013/// 13/11 Q1011
7:25 pm
M
54 °F 6¼ mi+ 2.100 ft 210° 210° 24 kt METAR EHHW 251725Z AUTO 21024KT 9999 FEW001/// SCT009/// BKN021/// 12/11 Q1011
6:55 pm
M
54 °F 6¼ mi+ 1.400 ft 230° 230° 29 kt METAR EHHW 251655Z AUTO 23029KT 9999 FEW006/// SCT011/// BKN014/// 12/10 Q1011
6:25 pm
M
55 °F 6¼ mi+ 1.900 ft 230° 230° 27 kt METAR EHHW 251625Z AUTO 23027KT 9999 FEW013/// SCT016/// BKN019/// 13/10 Q1011
5:55 pm
V
55 °F 6¼ mi+ - 220° 220° 26 kt METAR EHHW 251555Z AUTO 22026KT 9999 FEW016/// 13/10 Q1011
5:25 pm
V
55 °F 6¼ mi+ - 220° 220° 28 kt METAR EHHW 251525Z AUTO 22028KT 9999 FEW015/// 13/10 Q1011
4:55 pm
V
55 °F 6¼ mi+ - 220° 220° 28 kt METAR EHHW 251455Z AUTO 22028KT 9999 FEW016/// 13/10 Q1011
Starsze dane

Pobierz naszą aplikację

Łatwy dostęp do całej pogody lotniczej na telefonie komórkowym i tablecie.
Z wieloma funkcjami niedostępnymi na stronie internetowej, takimi jak wsparcie offline i osobista lista lotnisk.

My i osoby trzecie śledzimy twoje zachowanie w internecie na naszej stronie za pomocą plików cookie. Jeśli kontynuujesz, zakładamy, że zgadzasz się z naszą polityką plików cookie. Dowiedz się więcej